Time;durP1;ratioP1;P1;durP2;ratioP2;P2;SDS_P1;SDS_P2;PMS_P1;PMS_P2;Temp;Humidity;BMP_temperature;BMP_pressure;BME280_temperature;BME280_humidity;BME280_pressure;Samples;Min_cycle;Max_cycle;Signal;HPM_P1;HPM_P2
2023/06/18 00:03:45;;;;;;;17.90;11.40;;;;;;;18.11;61.70;98738.47;223778;215;146100;-65
2023/06/18 00:08:49;;;;;;;15.40;9.60;;;;;;;18.06;61.95;98745.02;223725;215;139597;-64
2023/06/18 00:13:52;;;;;;;11.20;9.10;;;;;;;17.97;62.46;98748.06;223909;214;137050;-64
2023/06/18 00:18:55;;;;;;;14.70;9.00;;;;;;;17.90;62.80;98747.13;223886;215;146718;-63
2023/06/18 00:23:59;;;;;;;12.00;9.40;;;;;;;17.88;62.65;98744.45;223918;182;138261;-64
2023/06/18 00:29:02;;;;;;;12.00;9.50;;;;;;;17.86;62.52;98744.19;223842;215;137519;-64
2023/06/18 00:34:06;;;;;;;11.60;9.30;;;;;;;17.81;62.92;98741.20;223917;214;145160;-64
2023/06/18 00:39:10;;;;;;;11.90;8.80;;;;;;;17.76;62.91;98747.77;223946;181;138896;-64
2023/06/18 00:44:13;;;;;;;12.80;9.50;;;;;;;17.69;63.13;98750.42;224020;208;137417;-64
2023/06/18 00:50:47;;;;;;;14.10;11.30;;;;;;;17.61;63.03;98747.89;219753;219;666476;-64
2023/06/18 00:55:53;;;;;;;;;;;;;;;17.53;63.10;98752.09;221195;184;136946;-65
2023/06/18 01:00:56;;;;;;;11.80;9.60;;;;;;;17.43;63.10;98756.63;221175;208;144020;-63
2023/06/18 01:06:02;;;;;;;13.60;9.30;;;;;;;17.36;63.22;98756.80;223726;216;140132;-62
2023/06/18 01:11:06;;;;;;;11.90;9.10;;;;;;;17.32;63.16;98755.73;223802;216;136521;-63
2023/06/18 01:16:11;;;;;;;12.30;9.10;;;;;;;17.25;63.32;98754.61;223753;197;143873;-63
2023/06/18 01:21:18;;;;;;;14.70;9.50;;;;;;;17.20;63.40;98750.53;223736;204;140669;-64
2023/06/18 01:26:22;;;;;;;12.20;9.20;;;;;;;17.17;63.32;98758.01;223703;216;137143;-63
2023/06/18 01:31:25;;;;;;;11.00;9.00;;;;;;;17.14;63.31;98755.27;223726;182;144011;-64
2023/06/18 01:36:40;;;;;;;14.00;9.30;;;;;;;17.09;63.57;98758.27;221906;212;138321;-64
2023/06/18 01:41:48;;;;;;;13.30;8.50;;;;;;;17.08;63.75;98761.77;221312;205;139769;-67
2023/06/18 01:46:54;;;;;;;13.50;9.40;;;;;;;17.13;63.86;98762.93;221223;184;147088;-66
2023/06/18 01:52:02;;;;;;;12.80;9.90;;;;;;;17.16;63.64;98770.43;221821;203;138925;-64
2023/06/18 01:57:07;;;;;;;11.70;8.80;;;;;;;17.22;63.72;98774.02;221611;203;136865;-63
2023/06/18 02:02:15;;;;;;;11.40;9.60;;;;;;;17.17;64.11;98773.05;221599;203;145910;-63
2023/06/18 02:07:18;;;;;;;14.50;9.60;;;;;;;17.03;64.45;98772.91;223890;214;138915;-62
2023/06/18 02:12:22;;;;;;;14.70;9.90;;;;;;;16.91;64.89;98781.29;223644;214;136666;-65
2023/06/18 02:17:26;;;;;;;15.00;10.00;;;;;;;16.78;65.32;98783.29;223949;212;145278;-65
2023/06/18 02:22:29;;;;;;;14.60;9.80;;;;;;;16.66;65.60;98786.88;223944;181;138789;-64
2023/06/18 02:27:32;;;;;;;13.10;9.60;;;;;;;16.56;65.78;98786.24;223950;214;136981;-64
2023/06/18 02:32:38;;;;;;;14.20;9.70;;;;;;;16.46;66.21;98787.81;223147;203;145842;-65
2023/06/18 02:37:42;;;;;;;12.10;9.30;;;;;;;16.44;66.51;98790.02;221627;187;139926;-65
2023/06/18 02:42:47;;;;;;;;;;;;;;;16.48;66.86;98787.30;223832;182;137302;-64
2023/06/18 02:47:52;;;;;;;18.40;10.70;;;;;;;16.57;66.96;98788.41;223861;215;145153;-65
2023/06/18 02:52:55;;;;;;;14.20;10.70;;;;;;;16.65;66.76;98787.58;223897;214;138140;-65
2023/06/18 02:57:59;;;;;;;14.10;10.70;;;;;;;16.69;66.69;98792.70;223958;215;139910;-65
2023/06/18 03:03:02;;;;;;;14.40;11.10;;;;;;;16.78;66.78;98792.85;223884;215;145384;-65
2023/06/18 03:08:08;;;;;;;;;;;;;;;16.85;66.59;98798.13;223908;203;138741;-65
2023/06/18 03:13:16;;;;;;;12.70;11.20;;;;;;;16.85;66.54;98799.52;223994;214;130528;-64
2023/06/18 03:18:26;;;;;;;15.20;11.00;;;;;;;16.76;66.56;98796.92;223865;183;146036;-65
2023/06/18 03:23:29;;;;;;;14.50;10.00;;;;;;;16.69;66.36;98800.41;223931;187;138413;-64
2023/06/18 03:28:35;;;;;;;13.20;10.00;;;;;;;16.66;66.62;98804.94;224007;207;138017;-65
2023/06/18 03:33:39;;;;;;;13.40;10.10;;;;;;;16.68;66.83;98807.13;223940;203;145204;-66
2023/06/18 03:38:45;;;;;;;15.80;10.40;;;;;;;16.71;66.80;98806.48;223904;204;138202;-65
2023/06/18 03:43:49;;;;;;;14.70;11.20;;;;;;;16.71;66.74;98811.13;224125;214;138538;-66
2023/06/18 03:48:52;;;;;;;13.20;10.80;;;;;;;16.70;66.74;98814.46;223795;187;144918;-64
2023/06/18 03:53:55;;;;;;;14.10;10.50;;;;;;;16.70;66.57;98818.23;223907;214;138139;-63
2023/06/18 03:58:59;;;;;;;16.40;10.90;;;;;;;16.66;66.60;98819.84;223733;181;137081;-67
2023/06/18 04:04:04;;;;;;;17.70;11.00;;;;;;;16.58;66.68;98827.94;223723;181;145770;-67
2023/06/18 04:09:08;;;;;;;15.00;11.10;;;;;;;16.57;66.77;98832.68;223801;212;138907;-67
2023/06/18 04:14:13;;;;;;;15.00;10.80;;;;;;;16.56;66.76;98832.41;223875;214;136664;-66
2023/06/18 04:19:17;;;;;;;14.80;11.50;;;;;;;16.59;66.86;98838.05;223882;203;145236;-67
2023/06/18 04:24:21;;;;;;;15.60;11.50;;;;;;;16.67;66.83;98839.68;223841;215;138601;-63
2023/06/18 04:29:24;;;;;;;14.20;11.80;;;;;;;16.76;66.64;98846.57;223957;182;137082;-64
2023/06/18 04:34:28;;;;;;;14.90;11.90;;;;;;;16.82;66.43;98851.06;223854;215;145393;-65
2023/06/18 04:39:32;;;;;;;15.90;11.50;;;;;;;16.77;66.45;98854.69;223689;215;139298;-64
2023/06/18 04:44:36;;;;;;;19.20;12.60;;;;;;;16.68;66.77;98858.69;223862;197;137499;-64
2023/06/18 04:49:40;;;;;;;15.00;12.00;;;;;;;16.64;67.15;98857.83;223944;204;145282;-64
2023/06/18 04:54:44;;;;;;;16.20;12.60;;;;;;;16.65;67.42;98857.02;223852;215;138426;-64
2023/06/18 04:59:48;;;;;;;15.00;11.70;;;;;;;16.77;67.44;98866.02;223994;215;137514;-64
2023/06/18 05:04:52;;;;;;;15.80;11.80;;;;;;;16.96;67.21;98866.94;223697;208;145209;-64
2023/06/18 05:09:55;;;;;;;16.10;12.20;;;;;;;17.14;66.84;98867.52;223773;214;138738;-65
2023/06/18 05:15:01;;;;;;;114.00;82.50;;;;;;;17.26;66.74;98867.21;223606;192;137440;-66
2023/06/18 05:20:05;;;;;;;17.90;14.30;;;;;;;17.45;66.43;98870.32;223987;215;145000;-65
2023/06/18 05:25:09;;;;;;;17.10;13.50;;;;;;;17.63;65.73;98877.42;223854;215;138272;-64
2023/06/18 05:30:12;;;;;;;34.10;29.20;;;;;;;17.83;65.58;98878.11;223791;215;137262;-65
2023/06/18 05:35:16;;;;;;;25.80;21.60;;;;;;;18.00;65.18;98882.75;223057;181;146144;-66
2023/06/18 05:40:25;;;;;;;52.70;42.60;;;;;;;18.22;64.59;98889.34;223891;182;139438;-65
2023/06/18 05:45:31;;;;;;;18.80;15.60;;;;;;;18.38;64.18;98892.76;223841;214;137614;-63
2023/06/18 05:50:34;;;;;;;136.70;118.60;;;;;;;18.53;63.85;98895.11;223977;214;145306;-65
2023/06/18 05:55:37;;;;;;;29.30;22.10;;;;;;;18.68;63.41;98903.53;223993;214;138169;-65
2023/06/18 06:00:42;;;;;;;21.70;17.40;;;;;;;18.82;62.92;98905.93;223944;214;137705;-64
2023/06/18 06:05:45;;;;;;;18.20;14.30;;;;;;;18.88;62.67;98908.73;223896;181;145724;-64
2023/06/18 06:10:51;;;;;;;17.40;14.70;;;;;;;19.01;62.31;98906.45;223823;207;138862;-65
2023/06/18 06:15:55;;;;;;;18.30;13.80;;;;;;;19.15;61.93;98903.23;223955;187;137401;-67
2023/06/18 06:20:58;;;;;;;31.00;26.00;;;;;;;19.25;61.66;98900.66;224055;181;145900;-66
2023/06/18 06:26:02;;;;;;;16.10;12.20;;;;;;;19.34;61.49;98903.83;223812;191;140803;-66
2023/06/18 06:31:05;;;;;;;14.20;12.00;;;;;;;19.41;61.41;98911.06;223950;214;137173;-65
2023/06/18 06:36:12;;;;;;;13.70;10.70;;;;;;;19.41;61.32;98906.41;223852;188;151150;-66
2023/06/18 06:41:17;;;;;;;14.60;10.30;;;;;;;19.40;61.32;98907.33;223902;192;138232;-66
2023/06/18 06:46:20;;;;;;;13.10;10.30;;;;;;;19.45;61.14;98906.14;223850;214;136692;-63
2023/06/18 06:51:42;;;;;;;15.40;10.20;;;;;;;19.50;61.04;98906.36;223922;214;145096;-63
2023/06/18 06:56:48;;;;;;;13.20;9.30;;;;;;;19.51;60.85;98908.40;223848;214;138193;-64
2023/06/18 07:01:51;;;;;;;12.30;9.50;;;;;;;19.59;60.92;98901.46;223980;181;137104;-66
2023/06/18 07:06:55;;;;;;;13.20;9.70;;;;;;;19.68;60.70;98900.03;223847;214;144960;-65
2023/06/18 07:11:58;;;;;;;50.00;39.00;;;;;;;19.74;60.44;98900.86;224044;214;138330;-65
2023/06/18 07:17:02;;;;;;;12.80;10.00;;;;;;;19.83;60.23;98897.05;224121;214;137091;-64
2023/06/18 07:22:05;;;;;;;13.30;9.60;;;;;;;19.86;59.95;98894.09;224133;214;145116;-64
2023/06/18 07:27:08;;;;;;;11.00;7.70;;;;;;;19.95;60.10;98891.39;224084;214;138378;-64
2023/06/18 07:32:12;;;;;;;13.50;9.50;;;;;;;20.04;59.32;98891.63;224083;207;136849;-64
2023/06/18 07:37:15;;;;;;;12.20;8.40;;;;;;;20.12;59.74;98888.45;223971;214;145839;-64
2023/06/18 07:42:18;;;;;;;10.00;7.30;;;;;;;20.21;59.17;98890.10;223988;214;138753;-66
2023/06/18 07:47:21;;;;;;;11.20;8.20;;;;;;;20.32;58.44;98887.48;224052;204;136985;-65
2023/06/18 07:52:25;;;;;;;91.20;76.90;;;;;;;20.44;58.24;98881.40;223248;181;145061;-63
2023/06/18 07:57:29;;;;;;;10.60;7.60;;;;;;;20.55;57.67;98883.09;221562;188;140121;-62
2023/06/18 08:02:33;;;;;;;11.90;10.20;;;;;;;20.63;57.52;98889.45;221728;203;137158;-62
2023/06/18 08:07:36;;;;;;;36.60;29.60;;;;;;;20.65;56.98;98886.00;221567;204;146042;-64
2023/06/18 08:12:40;;;;;;;12.10;9.60;;;;;;;20.72;57.25;98882.79;223779;214;138352;-68
2023/06/18 08:17:43;;;;;;;12.40;9.60;;;;;;;20.82;57.16;98884.89;223896;214;137785;-65
2023/06/18 08:22:46;;;;;;;94.00;74.40;;;;;;;20.89;56.76;98882.52;223907;214;145374;-65
2023/06/18 08:27:49;;;;;;;11.70;9.70;;;;;;;21.04;56.49;98881.84;224023;199;138598;-66
2023/06/18 08:32:55;;;;;;;7.40;6.20;;;;;;;21.13;55.00;98879.26;224079;191;137567;-67
2023/06/18 08:37:59;;;;;;;7.90;5.90;;;;;;;21.15;54.85;98880.07;223986;215;144908;-67
2023/06/18 08:43:04;;;;;;;11.70;7.90;;;;;;;21.22;54.66;98875.71;223721;181;139190;-67
2023/06/18 08:48:10;;;;;;;8.90;6.20;;;;;;;21.33;54.87;98870.08;223858;214;137785;-66
2023/06/18 08:54:18;;;;;;;7.10;5.60;;;;;;;21.48;54.37;98863.17;223966;208;145252;-65
2023/06/18 08:59:22;;;;;;;5.70;5.10;;;;;;;21.52;52.86;98859.69;223845;182;138381;-65
2023/06/18 09:04:26;;;;;;;7.50;4.90;;;;;;;21.42;52.41;98861.25;223947;215;136834;-66
2023/06/18 09:09:29;;;;;;;9.30;7.80;;;;;;;21.43;51.98;98857.75;223978;214;145284;-66
2023/06/18 09:14:33;;;;;;;6.40;4.90;;;;;;;21.56;51.71;98862.84;224131;195;138358;-66
2023/06/18 09:19:36;;;;;;;5.70;4.90;;;;;;;21.76;51.47;98857.46;224126;203;137129;-65
2023/06/18 09:24:40;;;;;;;5.30;4.30;;;;;;;21.93;50.42;98847.49;223919;185;147165;-64
2023/06/18 09:29:43;;;;;;;5.40;4.60;;;;;;;22.05;50.40;98848.52;224164;214;138386;-64
2023/06/18 09:34:46;;;;;;;7.60;5.20;;;;;;;22.21;50.48;98851.55;224196;214;137424;-64
2023/06/18 09:39:53;;;;;;;7.20;5.00;;;;;;;22.25;49.80;98851.91;224089;214;147416;-64
2023/06/18 09:44:58;;;;;;;7.20;5.40;;;;;;;22.23;49.83;98858.02;223781;212;140824;-67
2023/06/18 09:50:02;;;;;;;8.90;5.30;;;;;;;22.12;50.88;98861.98;223930;214;137326;-64
2023/06/18 09:55:26;;;;;;;8.20;5.60;;;;;;;22.18;51.37;98858.27;223842;214;147253;-65
2023/06/18 10:00:30;;;;;;;8.40;5.30;;;;;;;22.49;51.86;98849.86;223954;214;139299;-65
2023/06/18 10:05:34;;;;;;;12.00;10.20;;;;;;;22.50;51.75;98852.51;224117;214;136882;-67
2023/06/18 10:10:40;;;;;;;7.40;5.70;;;;;;;22.41;51.52;98856.23;223944;182;148265;-67
2023/06/18 10:15:44;;;;;;;6.80;5.40;;;;;;;22.32;51.33;98856.49;223655;215;138667;-70
2023/06/18 10:20:50;;;;;;;6.70;5.30;;;;;;;22.22;50.82;98858.73;222239;181;136857;-67
2023/06/18 10:25:55;;;;;;;107.70;89.60;;;;;;;22.19;50.47;98851.98;221592;183;147693;-64
2023/06/18 10:30:59;;;;;;;8.20;6.00;;;;;;;22.26;50.47;98852.83;223913;214;139784;-65
2023/06/18 10:36:03;;;;;;;26.30;21.80;;;;;;;22.47;50.62;98846.27;224110;207;137334;-63
2023/06/18 10:41:16;;;;;;;8.40;6.90;;;;;;;22.83;50.32;98846.40;223859;192;147180;-63
2023/06/18 10:46:21;;;;;;;7.70;6.40;;;;;;;23.16;49.07;98842.55;223953;214;138819;-64
2023/06/18 10:51:25;;;;;;;17.70;15.50;;;;;;;23.45;47.97;98838.67;224056;214;136728;-64
2023/06/18 10:56:30;;;;;;;6.00;5.40;;;;;;;23.65;48.11;98827.91;224062;203;147070;-64
2023/06/18 11:01:34;;;;;;;4.40;4.00;;;;;;;23.83;47.36;98826.66;224017;214;141019;-63
2023/06/18 13:05:35;;;;;;;11.30;6.30;;;;;;;27.48;36.94;98782.86;219840;215;665740;-65
2023/06/18 13:10:39;;;;;;;6.20;4.30;;;;;;;27.73;35.87;98779.66;223697;215;136176;-67
2023/06/18 13:15:42;;;;;;;121.60;102.50;;;;;;;27.90;35.82;98781.97;223760;215;143616;-65
2023/06/18 13:20:47;;;;;;;5.80;5.20;;;;;;;27.70;34.21;98780.17;223634;208;138424;-67
2023/06/18 13:25:53;;;;;;;;;;;;;;;27.39;35.65;98776.05;223887;181;137283;-65
2023/06/18 13:30:57;;;;;;;9.00;7.40;;;;;;;27.11;35.11;98781.93;224107;214;143225;-65
2023/06/18 13:36:00;;;;;;;8.50;7.60;;;;;;;26.70;35.81;98785.56;224021;192;139029;-65
2023/06/18 13:41:03;;;;;;;4.70;4.10;;;;;;;26.31;36.53;98785.95;224018;214;136149;-65
2023/06/18 13:46:07;;;;;;;6.30;4.00;;;;;;;25.98;36.63;98791.31;223975;214;144030;-65
2023/06/18 13:51:10;;;;;;;6.60;4.10;;;;;;;25.72;37.28;98788.30;223952;214;139233;-65
2023/06/18 13:56:13;;;;;;;62.50;53.70;;;;;;;25.49;38.45;98783.52;223842;207;136587;-65
2023/06/18 14:01:16;;;;;;;12.50;11.20;;;;;;;25.54;40.30;98790.34;223906;199;144942;-65
2023/06/18 14:06:20;;;;;;;6.20;5.30;;;;;;;25.71;40.52;98786.54;224020;214;138869;-65
2023/06/18 14:11:23;;;;;;;5.10;4.60;;;;;;;25.72;40.23;98793.52;223850;214;140652;-66
2023/06/18 14:16:26;;;;;;;6.10;5.10;;;;;;;25.79;39.49;98793.11;223982;180;145397;-66
2023/06/18 14:21:30;;;;;;;62.70;53.00;;;;;;;25.85;39.40;98789.69;223955;215;138443;-71
2023/06/18 14:26:33;;;;;;;95.50;78.70;;;;;;;25.90;38.92;98780.58;224030;214;136725;-65
2023/06/18 14:31:36;;;;;;;8.80;6.30;;;;;;;25.81;39.03;98771.64;223958;181;145943;-65
2023/06/18 14:36:40;;;;;;;5.60;4.90;;;;;;;25.58;39.31;98771.13;223878;214;138422;-66
2023/06/18 14:41:43;;;;;;;6.00;5.30;;;;;;;25.38;39.46;98769.85;223728;214;136775;-67
2023/06/18 14:46:47;;;;;;;5.00;4.50;;;;;;;25.21;39.96;98768.56;223899;214;145577;-66
2023/06/18 14:51:50;;;;;;;5.30;4.80;;;;;;;25.17;40.47;98771.50;223907;207;138559;-65
2023/06/18 14:56:54;;;;;;;11.10;5.40;;;;;;;25.15;40.92;98769.89;223953;214;137054;-65
2023/06/18 15:01:57;;;;;;;7.30;4.30;;;;;;;24.95;40.90;98774.77;223903;181;145517;-65
2023/06/18 15:07:02;;;;;;;4.90;4.30;;;;;;;24.86;39.99;98773.34;223863;214;138648;-64
2023/06/18 15:12:06;;;;;;;4.50;4.10;;;;;;;24.79;39.45;98770.80;223818;214;137870;-64
2023/06/18 15:17:12;;;;;;;5.20;3.90;;;;;;;24.75;38.83;98772.21;223869;194;145356;-64
2023/06/18 15:22:15;;;;;;;4.10;3.70;;;;;;;24.75;39.23;98769.45;223876;214;138311;-66
2023/06/18 15:27:18;;;;;;;4.80;4.30;;;;;;;24.79;39.09;98764.85;223912;214;137263;-66
2023/06/18 15:32:21;;;;;;;5.70;3.90;;;;;;;24.82;39.15;98762.70;223783;214;146217;-64
2023/06/18 15:37:25;;;;;;;5.50;5.00;;;;;;;24.78;38.78;98758.59;223754;214;138242;-65
2023/06/18 15:42:28;;;;;;;9.70;8.70;;;;;;;24.73;38.92;98760.48;223917;214;136525;-65
2023/06/18 15:47:31;;;;;;;5.10;4.20;;;;;;;24.74;38.86;98763.96;223935;185;145738;-64
2023/06/18 15:52:35;;;;;;;5.60;3.70;;;;;;;24.75;38.97;98764.09;223891;214;138031;-65
2023/06/18 15:57:39;;;;;;;4.00;3.50;;;;;;;24.65;38.31;98776.24;223890;214;137386;-64
2023/06/18 16:02:42;;;;;;;4.20;3.80;;;;;;;24.50;38.75;98779.77;223903;214;145410;-65
2023/06/18 16:07:46;;;;;;;6.50;3.80;;;;;;;24.32;39.01;98781.85;223804;214;141145;-65
2023/06/18 16:12:49;;;;;;;4.90;3.60;;;;;;;24.29;39.56;98780.48;223906;214;136426;-66
2023/06/18 16:17:54;;;;;;;4.60;4.10;;;;;;;24.38;39.37;98785.70;223966;214;145686;-65
2023/06/18 16:22:57;;;;;;;4.30;3.90;;;;;;;24.34;39.57;98789.52;223847;181;140058;-66
2023/06/18 16:28:01;;;;;;;11.70;8.80;;;;;;;24.31;39.93;98797.11;223923;184;137352;-65
2023/06/18 16:33:05;;;;;;;9.70;6.90;;;;;;;24.32;40.20;98798.42;222128;206;145236;-65
2023/06/18 16:38:08;;;;;;;10.30;6.40;;;;;;;24.26;40.02;98798.19;223757;207;138594;-65
2023/06/18 16:43:11;;;;;;;11.80;8.80;;;;;;;24.22;40.40;98801.84;223891;214;138536;-66
2023/06/18 16:48:14;;;;;;;5.30;3.80;;;;;;;24.19;40.17;98804.19;223922;181;146157;-68
2023/06/18 16:53:18;;;;;;;28.20;24.40;;;;;;;24.14;40.31;98797.79;223864;214;140256;-65
2023/06/18 19:26:58;;;;;;;14.50;10.00;;;;;;;20.47;54.92;98919.40;219697;216;666134;-67
2023/06/18 19:32:02;;;;;;;8.60;6.20;;;;;;;20.40;54.96;98924.69;223535;217;137010;-65
2023/06/18 19:37:06;;;;;;;9.10;6.10;;;;;;;20.31;55.48;98923.45;223365;194;144313;-67
2023/06/18 19:42:09;;;;;;;9.30;6.00;;;;;;;20.28;55.66;98923.08;223507;218;139124;-70
2023/06/18 19:47:12;;;;;;;11.00;6.80;;;;;;;20.26;56.06;98923.27;223467;218;136949;-73
2023/06/18 19:52:16;;;;;;;9.20;6.80;;;;;;;20.25;56.31;98924.29;223409;210;143295;-67
2023/06/18 19:57:19;;;;;;;9.10;6.50;;;;;;;20.25;56.50;98927.45;223578;217;138188;-69
2023/06/18 20:02:22;;;;;;;11.10;6.50;;;;;;;20.25;56.53;98929.85;223537;216;136433;-66
2023/06/18 20:51:03;;;;;;;14.90;7.70;;;;;;;19.87;59.45;98946.37;219858;189;666749;-65
2023/06/18 20:56:08;;;;;;;13.60;8.50;;;;;;;19.78;59.73;98945.85;223396;219;137559;-66
2023/06/18 21:01:11;;;;;;;16.80;7.70;;;;;;;19.72;59.95;98948.97;223602;209;144136;-65
2023/06/18 21:06:15;;;;;;;10.30;7.40;;;;;;;19.69;60.05;98943.58;223685;208;140051;-68
2023/06/18 21:11:21;;;;;;;10.60;7.40;;;;;;;19.63;60.31;98947.73;223768;184;137371;-68
2023/06/18 21:16:24;;;;;;;11.20;7.20;;;;;;;19.59;60.48;98949.20;223699;216;144274;-65
2023/06/18 21:21:28;;;;;;;9.20;6.50;;;;;;;19.53;60.08;98948.14;223706;216;138717;-67
2023/06/18 21:26:31;;;;;;;7.90;6.10;;;;;;;19.51;59.99;98940.48;223627;213;136925;-68
2023/06/18 21:31:34;;;;;;;10.20;6.80;;;;;;;19.44;60.48;98941.02;223804;183;143163;-66
2023/06/18 21:36:38;;;;;;;7.20;6.40;;;;;;;19.35;60.36;98943.84;223724;193;140194;-68
2023/06/18 21:41:41;;;;;;;9.10;6.40;;;;;;;19.28;60.48;98944.55;223654;183;139263;-67
2023/06/18 21:46:44;;;;;;;9.30;6.50;;;;;;;19.21;60.40;98943.11;223686;215;145376;-68
2023/06/18 21:51:48;;;;;;;8.60;6.70;;;;;;;19.14;60.40;98944.63;223590;215;138434;-66
2023/06/18 21:56:51;;;;;;;12.20;8.20;;;;;;;19.16;60.24;98951.38;223644;216;137150;-66
2023/06/18 22:01:54;;;;;;;8.50;6.40;;;;;;;19.21;60.17;98953.71;223601;215;145750;-67
2023/06/18 22:06:58;;;;;;;11.50;6.70;;;;;;;19.24;59.89;98950.07;223566;216;139557;-67
2023/06/18 22:12:01;;;;;;;8.70;6.80;;;;;;;19.20;60.57;98948.98;223604;183;136853;-65
2023/06/18 22:17:05;;;;;;;9.60;6.80;;;;;;;19.13;60.59;98950.54;223667;213;145458;-66
2023/06/18 22:22:08;;;;;;;7.20;6.50;;;;;;;19.07;60.67;98944.35;224002;214;138314;-66
2023/06/18 22:27:14;;;;;;;9.80;6.80;;;;;;;19.00;60.88;98946.05;223830;214;140456;-65
2023/06/18 22:32:17;;;;;;;12.60;7.10;;;;;;;18.93;61.23;98946.11;223810;214;146236;-66
2023/06/18 22:37:20;;;;;;;13.50;7.30;;;;;;;18.85;61.66;98944.09;224019;214;140147;-65
2023/06/18 22:42:24;;;;;;;10.40;7.10;;;;;;;18.76;62.00;98943.21;223926;214;136910;-65
2023/06/18 22:47:27;;;;;;;10.30;6.50;;;;;;;18.72;62.15;98935.71;223959;182;146620;-66
2023/06/18 22:52:30;;;;;;;7.70;6.80;;;;;;;18.75;62.17;98932.14;224108;214;139016;-64
2023/06/18 22:57:34;;;;;;;10.50;7.60;;;;;;;18.75;62.40;98931.80;223896;214;138356;-68
2023/06/18 23:02:38;;;;;;;10.00;7.50;;;;;;;18.71;62.68;98933.83;224009;181;145576;-65
2023/06/18 23:07:42;;;;;;;10.30;7.10;;;;;;;18.62;62.75;98934.42;223801;204;138689;-64
2023/06/18 23:12:45;;;;;;;10.80;7.60;;;;;;;18.54;62.92;98934.52;223919;214;138052;-66
2023/06/18 23:17:49;;;;;;;8.50;7.40;;;;;;;18.53;62.28;98936.48;223878;214;145241;-65
2023/06/18 23:22:52;;;;;;;9.40;7.40;;;;;;;18.59;61.47;98941.05;223779;214;138543;-66
2023/06/18 23:27:55;;;;;;;9.90;7.30;;;;;;;18.60;62.09;98946.31;222137;203;140145;-66
2023/06/18 23:32:58;;;;;;;9.50;8.30;;;;;;;18.52;62.63;98945.39;221591;207;147104;-63
2023/06/18 23:38:02;;;;;;;9.10;7.20;;;;;;;18.39;62.77;98944.04;223947;182;138417;-65
2023/06/18 23:43:06;;;;;;;9.60;7.30;;;;;;;18.25;63.17;98936.61;223879;204;136848;-65
2023/06/18 23:48:09;;;;;;;9.50;7.50;;;;;;;18.12;63.49;98932.42;223921;214;145716;-64
2023/06/18 23:53:12;;;;;;;10.70;7.20;;;;;;;17.97;63.55;98930.46;223863;214;138669;-65
2023/06/18 23:58:16;;;;;;;7.70;6.80;;;;;;;17.92;63.90;98936.16;223857;204;137676;-65
